sensor_id;sensor_type;location;lat;lon;timestamp;temperature;humidity
29917;DHT22;16786;49.466;11.068;2023-05-28T00:01:45;13.10;99.90
29917;DHT22;16786;49.466;11.068;2023-05-28T00:04:14;13.00;99.90
29917;DHT22;16786;49.466;11.068;2023-05-28T00:06:41;13.00;99.90
29917;DHT22;16786;49.466;11.068;2023-05-28T00:09:09;12.90;99.90
29917;DHT22;16786;49.466;11.068;2023-05-28T00:11:36;12.90;99.90
29917;DHT22;16786;49.466;11.068;2023-05-28T00:14:04;12.80;99.90
29917;DHT22;16786;49.466;11.068;2023-05-28T00:16:31;12.80;99.90
29917;DHT22;16786;49.466;11.068;2023-05-28T00:19:03;12.80;99.90
29917;DHT22;16786;49.466;11.068;2023-05-28T00:21:30;12.70;99.90
29917;DHT22;16786;49.466;11.068;2023-05-28T00:24:00;12.70;99.90
29917;DHT22;16786;49.466;11.068;2023-05-28T00:26:27;12.70;99.90
29917;DHT22;16786;49.466;11.068;2023-05-28T00:28:56;12.70;99.90
29917;DHT22;16786;49.466;11.068;2023-05-28T00:31:24;12.70;99.90
29917;DHT22;16786;49.466;11.068;2023-05-28T00:33:51;12.60;99.90
29917;DHT22;16786;49.466;11.068;2023-05-28T00:36:19;12.50;99.90
29917;DHT22;16786;49.466;11.068;2023-05-28T00:38:46;12.50;99.90
29917;DHT22;16786;49.466;11.068;2023-05-28T00:41:19;12.50;99.90
29917;DHT22;16786;49.466;11.068;2023-05-28T00:43:47;12.50;99.90
29917;DHT22;16786;49.466;11.068;2023-05-28T00:46:21;12.40;99.90
29917;DHT22;16786;49.466;11.068;2023-05-28T00:48:50;12.40;99.90
29917;DHT22;16786;49.466;11.068;2023-05-28T00:51:18;12.40;99.90
29917;DHT22;16786;49.466;11.068;2023-05-28T00:53:45;12.30;99.90
29917;DHT22;16786;49.466;11.068;2023-05-28T00:56:13;12.30;99.90
29917;DHT22;16786;49.466;11.068;2023-05-28T00:58:43;12.30;99.90
29917;DHT22;16786;49.466;11.068;2023-05-28T01:01:10;12.30;99.90
29917;DHT22;16786;49.466;11.068;2023-05-28T01:03:38;12.30;99.90
29917;DHT22;16786;49.466;11.068;2023-05-28T01:06:07;12.30;99.90
29917;DHT22;16786;49.466;11.068;2023-05-28T01:08:39;12.30;99.90
29917;DHT22;16786;49.466;11.068;2023-05-28T01:11:11;12.20;99.90
29917;DHT22;16786;49.466;11.068;2023-05-28T01:13:41;12.20;99.90
29917;DHT22;16786;49.466;11.068;2023-05-28T01:16:10;12.20;99.90
29917;DHT22;16786;49.466;11.068;2023-05-28T01:18:38;12.10;99.90
29917;DHT22;16786;49.466;11.068;2023-05-28T01:21:08;12.10;99.90
29917;DHT22;16786;49.466;11.068;2023-05-28T01:23:56;12.10;99.90
29917;DHT22;16786;49.466;11.068;2023-05-28T01:26:24;12.10;99.90
29917;DHT22;16786;49.466;11.068;2023-05-28T01:28:53;12.00;99.90
29917;DHT22;16786;49.466;11.068;2023-05-28T01:31:22;12.00;99.90
29917;DHT22;16786;49.466;11.068;2023-05-28T01:33:49;12.00;99.90
29917;DHT22;16786;49.466;11.068;2023-05-28T01:36:23;11.90;99.90
29917;DHT22;16786;49.466;11.068;2023-05-28T01:38:52;11.90;99.90
29917;DHT22;16786;49.466;11.068;2023-05-28T01:41:28;11.80;99.90
29917;DHT22;16786;49.466;11.068;2023-05-28T01:43:57;11.90;99.90
29917;DHT22;16786;49.466;11.068;2023-05-28T01:46:26;11.90;99.90
29917;DHT22;16786;49.466;11.068;2023-05-28T01:48:55;11.80;99.90
29917;DHT22;16786;49.466;11.068;2023-05-28T01:51:25;11.80;99.90
29917;DHT22;16786;49.466;11.068;2023-05-28T01:53:52;11.80;99.90
29917;DHT22;16786;49.466;11.068;2023-05-28T01:56:20;11.80;99.90
29917;DHT22;16786;49.466;11.068;2023-05-28T01:58:47;11.80;99.90
29917;DHT22;16786;49.466;11.068;2023-05-28T02:01:20;11.80;99.90
29917;DHT22;16786;49.466;11.068;2023-05-28T02:03:56;11.80;99.90
29917;DHT22;16786;49.466;11.068;2023-05-28T02:06:29;11.80;99.90
29917;DHT22;16786;49.466;11.068;2023-05-28T02:08:56;11.80;99.90
29917;DHT22;16786;49.466;11.068;2023-05-28T02:11:24;11.80;99.90
29917;DHT22;16786;49.466;11.068;2023-05-28T02:13:55;11.80;99.90
29917;DHT22;16786;49.466;11.068;2023-05-28T02:16:23;11.80;99.90
29917;DHT22;16786;49.466;11.068;2023-05-28T02:18:53;11.80;99.90
29917;DHT22;16786;49.466;11.068;2023-05-28T02:21:23;11.80;99.90
29917;DHT22;16786;49.466;11.068;2023-05-28T02:23:50;11.80;99.90
29917;DHT22;16786;49.466;11.068;2023-05-28T02:26:18;11.80;99.90
29917;DHT22;16786;49.466;11.068;2023-05-28T02:28:45;11.80;99.90
29917;DHT22;16786;49.466;11.068;2023-05-28T02:31:14;11.80;99.90
29917;DHT22;16786;49.466;11.068;2023-05-28T02:33:44;11.70;99.90
29917;DHT22;16786;49.466;11.068;2023-05-28T02:36:13;11.70;99.90
29917;DHT22;16786;49.466;11.068;2023-05-28T02:38:41;11.60;99.90
29917;DHT22;16786;49.466;11.068;2023-05-28T02:41:10;11.60;99.90
29917;DHT22;16786;49.466;11.068;2023-05-28T02:43:41;11.60;99.90
29917;DHT22;16786;49.466;11.068;2023-05-28T02:46:10;11.60;99.90
29917;DHT22;16786;49.466;11.068;2023-05-28T02:48:38;11.60;99.90
29917;DHT22;16786;49.466;11.068;2023-05-28T02:51:07;11.50;99.90
29917;DHT22;16786;49.466;11.068;2023-05-28T02:53:51;11.50;99.90
29917;DHT22;16786;49.466;11.068;2023-05-28T02:56:18;11.50;99.90
29917;DHT22;16786;49.466;11.068;2023-05-28T02:58:46;11.50;99.90
29917;DHT22;16786;49.466;11.068;2023-05-28T03:01:14;11.50;99.90
29917;DHT22;16786;49.466;11.068;2023-05-28T03:03:42;11.50;99.90
29917;DHT22;16786;49.466;11.068;2023-05-28T03:06:10;11.50;99.90
29917;DHT22;16786;49.466;11.068;2023-05-28T03:08:46;11.50;99.90
29917;DHT22;16786;49.466;11.068;2023-05-28T03:11:14;11.40;99.90
29917;DHT22;16786;49.466;11.068;2023-05-28T03:13:41;11.40;99.90
29917;DHT22;16786;49.466;11.068;2023-05-28T03:16:08;11.40;99.90
29917;DHT22;16786;49.466;11.068;2023-05-28T03:18:36;11.40;99.90
29917;DHT22;16786;49.466;11.068;2023-05-28T03:21:05;11.40;99.90
29917;DHT22;16786;49.466;11.068;2023-05-28T03:23:33;11.40;99.90
29917;DHT22;16786;49.466;11.068;2023-05-28T03:26:07;11.40;99.90
29917;DHT22;16786;49.466;11.068;2023-05-28T03:28:34;11.40;99.90
29917;DHT22;16786;49.466;11.068;2023-05-28T03:31:21;11.40;99.90
29917;DHT22;16786;49.466;11.068;2023-05-28T03:33:48;11.40;99.90
29917;DHT22;16786;49.466;11.068;2023-05-28T03:36:15;11.40;99.90
29917;DHT22;16786;49.466;11.068;2023-05-28T03:38:44;11.30;99.90
29917;DHT22;16786;49.466;11.068;2023-05-28T03:41:12;11.40;99.90
29917;DHT22;16786;49.466;11.068;2023-05-28T03:43:39;11.40;99.90
29917;DHT22;16786;49.466;11.068;2023-05-28T03:46:07;11.40;99.90
29917;DHT22;16786;49.466;11.068;2023-05-28T03:48:36;11.40;99.90
29917;DHT22;16786;49.466;11.068;2023-05-28T03:51:03;11.40;99.90
29917;DHT22;16786;49.466;11.068;2023-05-28T03:53:32;11.40;99.90
29917;DHT22;16786;49.466;11.068;2023-05-28T03:55:59;11.50;99.90
29917;DHT22;16786;49.466;11.068;2023-05-28T03:58:27;11.50;99.90
29917;DHT22;16786;49.466;11.068;2023-05-28T04:00:56;11.60;99.90
29917;DHT22;16786;49.466;11.068;2023-05-28T04:03:24;11.60;99.90
29917;DHT22;16786;49.466;11.068;2023-05-28T04:05:51;11.60;99.90
29917;DHT22;16786;49.466;11.068;2023-05-28T04:08:21;11.70;99.90
29917;DHT22;16786;49.466;11.068;2023-05-28T04:10:49;11.70;99.90
29917;DHT22;16786;49.466;11.068;2023-05-28T04:13:17;11.80;99.90
29917;DHT22;16786;49.466;11.068;2023-05-28T04:15:45;11.80;99.90
29917;DHT22;16786;49.466;11.068;2023-05-28T04:18:12;11.80;99.90
29917;DHT22;16786;49.466;11.068;2023-05-28T04:20:40;11.90;99.90
29917;DHT22;16786;49.466;11.068;2023-05-28T04:23:09;11.90;99.90
29917;DHT22;16786;49.466;11.068;2023-05-28T04:25:36;11.90;99.90
29917;DHT22;16786;49.466;11.068;2023-05-28T04:28:04;12.00;99.90
29917;DHT22;16786;49.466;11.068;2023-05-28T04:30:32;12.10;99.90
29917;DHT22;16786;49.466;11.068;2023-05-28T04:33:00;12.10;99.90
29917;DHT22;16786;49.466;11.068;2023-05-28T04:35:27;12.20;99.90
29917;DHT22;16786;49.466;11.068;2023-05-28T04:37:56;12.30;99.90
29917;DHT22;16786;49.466;11.068;2023-05-28T04:40:23;12.30;99.90
29917;DHT22;16786;49.466;11.068;2023-05-28T04:42:51;12.40;99.90
29917;DHT22;16786;49.466;11.068;2023-05-28T04:45:24;12.40;99.90
29917;DHT22;16786;49.466;11.068;2023-05-28T04:47:51;12.50;99.90
29917;DHT22;16786;49.466;11.068;2023-05-28T04:50:19;12.60;99.90
29917;DHT22;16786;49.466;11.068;2023-05-28T04:52:47;12.70;99.90
29917;DHT22;16786;49.466;11.068;2023-05-28T04:55:17;12.70;99.90
29917;DHT22;16786;49.466;11.068;2023-05-28T04:57:45;12.90;99.90
29917;DHT22;16786;49.466;11.068;2023-05-28T05:00:14;13.00;99.90
29917;DHT22;16786;49.466;11.068;2023-05-28T05:02:42;13.10;99.90
29917;DHT22;16786;49.466;11.068;2023-05-28T05:05:09;13.20;99.90
29917;DHT22;16786;49.466;11.068;2023-05-28T05:07:37;13.30;99.90
29917;DHT22;16786;49.466;11.068;2023-05-28T05:10:09;13.40;99.90
29917;DHT22;16786;49.466;11.068;2023-05-28T05:12:37;13.60;99.90
29917;DHT22;16786;49.466;11.068;2023-05-28T05:15:06;13.80;99.90
29917;DHT22;16786;49.466;11.068;2023-05-28T05:17:34;13.90;99.90
29917;DHT22;16786;49.466;11.068;2023-05-28T05:20:03;13.90;99.90
29917;DHT22;16786;49.466;11.068;2023-05-28T05:22:34;14.00;99.90
29917;DHT22;16786;49.466;11.068;2023-05-28T05:25:02;14.00;99.90
29917;DHT22;16786;49.466;11.068;2023-05-28T05:27:30;14.10;99.90
29917;DHT22;16786;49.466;11.068;2023-05-28T05:29:57;14.20;99.90
29917;DHT22;16786;49.466;11.068;2023-05-28T05:32:25;14.30;99.90
29917;DHT22;16786;49.466;11.068;2023-05-28T05:34:53;14.40;99.90
29917;DHT22;16786;49.466;11.068;2023-05-28T05:37:40;14.40;99.90
29917;DHT22;16786;49.466;11.068;2023-05-28T05:40:28;14.50;99.90
29917;DHT22;16786;49.466;11.068;2023-05-28T05:43:06;14.60;99.90
29917;DHT22;16786;49.466;11.068;2023-05-28T05:45:36;14.70;99.90
29917;DHT22;16786;49.466;11.068;2023-05-28T05:48:03;14.80;99.90
29917;DHT22;16786;49.466;11.068;2023-05-28T05:50:32;14.90;99.90
29917;DHT22;16786;49.466;11.068;2023-05-28T05:53:00;15.00;99.90
29917;DHT22;16786;49.466;11.068;2023-05-28T05:55:28;15.00;99.90
29917;DHT22;16786;49.466;11.068;2023-05-28T05:57:56;15.10;99.90
29917;DHT22;16786;49.466;11.068;2023-05-28T06:00:26;15.20;99.90
29917;DHT22;16786;49.466;11.068;2023-05-28T06:02:55;15.10;99.90
29917;DHT22;16786;49.466;11.068;2023-05-28T06:05:42;15.20;99.90
29917;DHT22;16786;49.466;11.068;2023-05-28T06:08:22;15.30;99.90
29917;DHT22;16786;49.466;11.068;2023-05-28T06:11:13;15.40;99.90
29917;DHT22;16786;49.466;11.068;2023-05-28T06:13:41;15.50;99.90
29917;DHT22;16786;49.466;11.068;2023-05-28T06:16:09;15.50;99.90
29917;DHT22;16786;49.466;11.068;2023-05-28T06:18:39;15.50;99.90
29917;DHT22;16786;49.466;11.068;2023-05-28T06:21:07;15.60;99.90
29917;DHT22;16786;49.466;11.068;2023-05-28T06:23:35;15.70;99.90
29917;DHT22;16786;49.466;11.068;2023-05-28T06:26:02;15.80;99.90
29917;DHT22;16786;49.466;11.068;2023-05-28T06:28:31;15.90;99.90
29917;DHT22;16786;49.466;11.068;2023-05-28T06:30:59;16.00;99.90
29917;DHT22;16786;49.466;11.068;2023-05-28T06:33:26;16.00;99.90
29917;DHT22;16786;49.466;11.068;2023-05-28T06:35:54;16.10;99.90
29917;DHT22;16786;49.466;11.068;2023-05-28T06:38:22;16.20;99.90
29917;DHT22;16786;49.466;11.068;2023-05-28T06:40:49;16.30;99.90
29917;DHT22;16786;49.466;11.068;2023-05-28T06:43:18;16.30;99.90
29917;DHT22;16786;49.466;11.068;2023-05-28T06:46:12;16.50;99.90
29917;DHT22;16786;49.466;11.068;2023-05-28T06:48:39;16.60;99.90
29917;DHT22;16786;49.466;11.068;2023-05-28T06:51:06;16.70;99.90
29917;DHT22;16786;49.466;11.068;2023-05-28T06:53:34;16.70;99.90
29917;DHT22;16786;49.466;11.068;2023-05-28T06:56:02;16.80;99.90
29917;DHT22;16786;49.466;11.068;2023-05-28T06:58:38;16.80;99.90
29917;DHT22;16786;49.466;11.068;2023-05-28T07:01:32;17.00;99.90
29917;DHT22;16786;49.466;11.068;2023-05-28T07:04:13;17.00;99.90
29917;DHT22;16786;49.466;11.068;2023-05-28T07:06:44;17.10;99.90
29917;DHT22;16786;49.466;11.068;2023-05-28T07:09:24;17.10;99.90
29917;DHT22;16786;49.466;11.068;2023-05-28T07:11:51;17.30;99.90
29917;DHT22;16786;49.466;11.068;2023-05-28T07:14:19;17.40;99.90
29917;DHT22;16786;49.466;11.068;2023-05-28T07:16:47;17.50;99.90
29917;DHT22;16786;49.466;11.068;2023-05-28T07:19:15;17.70;99.90
29917;DHT22;16786;49.466;11.068;2023-05-28T07:21:45;17.90;99.90
29917;DHT22;16786;49.466;11.068;2023-05-28T07:24:13;18.00;99.90
29917;DHT22;16786;49.466;11.068;2023-05-28T07:26:40;18.00;99.90
29917;DHT22;16786;49.466;11.068;2023-05-28T07:29:08;18.10;99.90
29917;DHT22;16786;49.466;11.068;2023-05-28T07:31:36;18.20;99.90
29917;DHT22;16786;49.466;11.068;2023-05-28T07:34:07;18.40;99.90
29917;DHT22;16786;49.466;11.068;2023-05-28T07:36:37;18.50;99.90
29917;DHT22;16786;49.466;11.068;2023-05-28T07:39:05;18.30;99.90
29917;DHT22;16786;49.466;11.068;2023-05-28T07:41:32;18.30;99.90
29917;DHT22;16786;49.466;11.068;2023-05-28T07:44:19;18.50;99.90
29917;DHT22;16786;49.466;11.068;2023-05-28T07:46:46;18.50;99.90
29917;DHT22;16786;49.466;11.068;2023-05-28T07:49:26;18.40;99.90
29917;DHT22;16786;49.466;11.068;2023-05-28T07:51:57;18.50;99.90
29917;DHT22;16786;49.466;11.068;2023-05-28T07:54:28;18.60;99.90
29917;DHT22;16786;49.466;11.068;2023-05-28T07:56:56;18.70;99.90
29917;DHT22;16786;49.466;11.068;2023-05-28T07:59:33;18.80;99.90
29917;DHT22;16786;49.466;11.068;2023-05-28T08:02:03;18.80;99.90
29917;DHT22;16786;49.466;11.068;2023-05-28T08:04:30;19.00;99.90
29917;DHT22;16786;49.466;11.068;2023-05-28T08:06:59;19.20;99.90
29917;DHT22;16786;49.466;11.068;2023-05-28T08:09:29;19.10;99.90
29917;DHT22;16786;49.466;11.068;2023-05-28T08:11:59;19.10;99.90
29917;DHT22;16786;49.466;11.068;2023-05-28T08:14:28;19.30;99.90
29917;DHT22;16786;49.466;11.068;2023-05-28T08:17:01;19.30;99.90
29917;DHT22;16786;49.466;11.068;2023-05-28T08:19:49;19.40;99.90
29917;DHT22;16786;49.466;11.068;2023-05-28T08:22:54;19.50;99.90
29917;DHT22;16786;49.466;11.068;2023-05-28T08:25:22;19.70;99.90
29917;DHT22;16786;49.466;11.068;2023-05-28T08:27:53;19.90;99.90
29917;DHT22;16786;49.466;11.068;2023-05-28T08:30:22;20.10;99.90
29917;DHT22;16786;49.466;11.068;2023-05-28T08:32:57;20.10;99.90
29917;DHT22;16786;49.466;11.068;2023-05-28T08:35:25;20.30;99.90
29917;DHT22;16786;49.466;11.068;2023-05-28T08:37:53;20.30;99.90
29917;DHT22;16786;49.466;11.068;2023-05-28T08:40:43;20.30;99.90
29917;DHT22;16786;49.466;11.068;2023-05-28T08:43:12;20.40;99.90
29917;DHT22;16786;49.466;11.068;2023-05-28T08:45:40;20.40;99.90
29917;DHT22;16786;49.466;11.068;2023-05-28T08:48:09;20.30;99.90
29917;DHT22;16786;49.466;11.068;2023-05-28T08:50:40;20.40;99.90
29917;DHT22;16786;49.466;11.068;2023-05-28T08:53:16;20.60;99.90
29917;DHT22;16786;49.466;11.068;2023-05-28T08:55:46;20.70;99.90
29917;DHT22;16786;49.466;11.068;2023-05-28T08:58:17;20.90;99.90
29917;DHT22;16786;49.466;11.068;2023-05-28T09:00:47;21.00;99.90
29917;DHT22;16786;49.466;11.068;2023-05-28T09:03:37;21.00;99.90
29917;DHT22;16786;49.466;11.068;2023-05-28T09:06:12;20.90;99.90
29917;DHT22;16786;49.466;11.068;2023-05-28T09:08:43;21.00;99.90
29917;DHT22;16786;49.466;11.068;2023-05-28T09:11:15;21.10;99.90
29917;DHT22;16786;49.466;11.068;2023-05-28T09:13:45;21.20;99.90
29917;DHT22;16786;49.466;11.068;2023-05-28T09:16:21;21.30;99.90
29917;DHT22;16786;49.466;11.068;2023-05-28T09:19:02;21.40;99.90
29917;DHT22;16786;49.466;11.068;2023-05-28T09:21:30;21.60;99.90
29917;DHT22;16786;49.466;11.068;2023-05-28T09:24:00;21.80;99.10
29917;DHT22;16786;49.466;11.068;2023-05-28T09:26:46;22.00;98.50
29917;DHT22;16786;49.466;11.068;2023-05-28T09:29:24;22.10;98.20
29917;DHT22;16786;49.466;11.068;2023-05-28T09:31:59;22.30;97.70
29917;DHT22;16786;49.466;11.068;2023-05-28T09:34:30;22.30;96.10
29917;DHT22;16786;49.466;11.068;2023-05-28T09:37:03;22.50;96.50
29917;DHT22;16786;49.466;11.068;2023-05-28T09:39:31;22.60;95.20
29917;DHT22;16786;49.466;11.068;2023-05-28T09:42:03;22.60;94.00
29917;DHT22;16786;49.466;11.068;2023-05-28T09:44:38;22.60;92.20
29917;DHT22;16786;49.466;11.068;2023-05-28T09:47:16;22.80;92.30
29917;DHT22;16786;49.466;11.068;2023-05-28T09:49:45;23.10;91.90
29917;DHT22;16786;49.466;11.068;2023-05-28T09:52:22;23.30;91.50
29917;DHT22;16786;49.466;11.068;2023-05-28T09:54:53;23.50;90.00
29917;DHT22;16786;49.466;11.068;2023-05-28T09:57:32;23.60;89.10
29917;DHT22;16786;49.466;11.068;2023-05-28T10:00:01;23.60;88.00
29917;DHT22;16786;49.466;11.068;2023-05-28T10:05:33;23.90;83.90
29917;DHT22;16786;49.466;11.068;2023-05-28T10:08:02;23.90;83.80
29917;DHT22;16786;49.466;11.068;2023-05-28T10:10:31;23.80;82.90
29917;DHT22;16786;49.466;11.068;2023-05-28T10:13:01;24.00;82.70
29917;DHT22;16786;49.466;11.068;2023-05-28T10:15:28;24.20;81.60
29917;DHT22;16786;49.466;11.068;2023-05-28T10:17:56;24.40;80.80
29917;DHT22;16786;49.466;11.068;2023-05-28T10:20:24;24.40;79.10
29917;DHT22;16786;49.466;11.068;2023-05-28T10:22:52;24.60;77.70
29917;DHT22;16786;49.466;11.068;2023-05-28T10:25:20;24.80;78.30
29917;DHT22;16786;49.466;11.068;2023-05-28T10:27:48;25.10;76.20
29917;DHT22;16786;49.466;11.068;2023-05-28T10:30:38;25.30;75.20
29917;DHT22;16786;49.466;11.068;2023-05-28T10:33:11;25.50;74.20
29917;DHT22;16786;49.466;11.068;2023-05-28T10:35:51;25.80;74.00
29917;DHT22;16786;49.466;11.068;2023-05-28T10:38:21;26.00;72.90
29917;DHT22;16786;49.466;11.068;2023-05-28T10:40:48;26.10;72.40
29917;DHT22;16786;49.466;11.068;2023-05-28T10:46:12;26.50;71.80
29917;DHT22;16786;49.466;11.068;2023-05-28T10:51:58;26.70;69.40
29917;DHT22;16786;49.466;11.068;2023-05-28T10:57:20;25.70;68.10
29917;DHT22;16786;49.466;11.068;2023-05-28T11:02:23;26.70;67.30
29917;DHT22;16786;49.466;11.068;2023-05-28T11:04:56;27.00;68.00
29917;DHT22;16786;49.466;11.068;2023-05-28T11:07:40;27.00;67.50
29917;DHT22;16786;49.466;11.068;2023-05-28T11:10:14;26.90;67.50
29917;DHT22;16786;49.466;11.068;2023-05-28T11:12:43;27.10;67.50
29917;DHT22;16786;49.466;11.068;2023-05-28T11:15:13;27.40;66.00
29917;DHT22;16786;49.466;11.068;2023-05-28T11:17:45;27.40;65.70
29917;DHT22;16786;49.466;11.068;2023-05-28T11:20:24;27.40;65.80
29917;DHT22;16786;49.466;11.068;2023-05-28T11:22:53;27.40;64.50
29917;DHT22;16786;49.466;11.068;2023-05-28T11:25:21;27.30;63.20
29917;DHT22;16786;49.466;11.068;2023-05-28T11:27:54;27.10;64.30
29917;DHT22;16786;49.466;11.068;2023-05-28T11:30:24;27.40;64.30
29917;DHT22;16786;49.466;11.068;2023-05-28T11:32:54;27.70;64.40
29917;DHT22;16786;49.466;11.068;2023-05-28T11:35:21;28.00;62.60
29917;DHT22;16786;49.466;11.068;2023-05-28T11:37:48;28.00;62.50
29917;DHT22;16786;49.466;11.068;2023-05-28T11:40:16;28.10;62.30
29917;DHT22;16786;49.466;11.068;2023-05-28T11:42:44;28.30;61.60
29917;DHT22;16786;49.466;11.068;2023-05-28T11:45:12;28.40;60.90
29917;DHT22;16786;49.466;11.068;2023-05-28T11:47:40;28.70;59.90
29917;DHT22;16786;49.466;11.068;2023-05-28T11:50:14;28.80;59.40
29917;DHT22;16786;49.466;11.068;2023-05-28T11:52:43;28.60;59.50
29917;DHT22;16786;49.466;11.068;2023-05-28T11:55:11;28.80;58.50
29917;DHT22;16786;49.466;11.068;2023-05-28T11:57:39;29.00;60.00
29917;DHT22;16786;49.466;11.068;2023-05-28T12:00:17;29.70;58.60
29917;DHT22;16786;49.466;11.068;2023-05-28T12:02:51;29.90;57.10
29917;DHT22;16786;49.466;11.068;2023-05-28T12:05:20;30.30;57.30
29917;DHT22;16786;49.466;11.068;2023-05-28T12:07:51;30.70;57.10
29917;DHT22;16786;49.466;11.068;2023-05-28T12:10:26;31.20;55.80
29917;DHT22;16786;49.466;11.068;2023-05-28T12:12:56;31.10;55.40
29917;DHT22;16786;49.466;11.068;2023-05-28T12:15:26;31.10;54.70
29917;DHT22;16786;49.466;11.068;2023-05-28T12:17:56;30.60;52.70
29917;DHT22;16786;49.466;11.068;2023-05-28T12:23:04;31.10;53.90
29917;DHT22;16786;49.466;11.068;2023-05-28T12:28:11;32.30;51.80
29917;DHT22;16786;49.466;11.068;2023-05-28T12:30:40;32.50;51.00
29917;DHT22;16786;49.466;11.068;2023-05-28T12:33:08;32.00;51.40
29917;DHT22;16786;49.466;11.068;2023-05-28T12:35:36;32.10;51.40
29917;DHT22;16786;49.466;11.068;2023-05-28T12:38:04;32.10;51.00
29917;DHT22;16786;49.466;11.068;2023-05-28T12:40:31;32.80;50.50
29917;DHT22;16786;49.466;11.068;2023-05-28T12:42:59;33.10;50.50
29917;DHT22;16786;49.466;11.068;2023-05-28T12:45:27;33.60;50.00
29917;DHT22;16786;49.466;11.068;2023-05-28T12:47:54;34.10;49.40
29917;DHT22;16786;49.466;11.068;2023-05-28T12:50:21;34.40;49.00
29917;DHT22;16786;49.466;11.068;2023-05-28T12:52:52;34.70;48.50
29917;DHT22;16786;49.466;11.068;2023-05-28T12:55:20;34.20;47.70
29917;DHT22;16786;49.466;11.068;2023-05-28T12:57:48;34.60;47.40
29917;DHT22;16786;49.466;11.068;2023-05-28T13:00:16;34.60;47.20
29917;DHT22;16786;49.466;11.068;2023-05-28T13:02:43;34.40;46.90
29917;DHT22;16786;49.466;11.068;2023-05-28T13:05:11;34.40;46.60
29917;DHT22;16786;49.466;11.068;2023-05-28T13:07:38;34.30;46.30
29917;DHT22;16786;49.466;11.068;2023-05-28T13:10:06;33.90;46.80
29917;DHT22;16786;49.466;11.068;2023-05-28T13:12:35;34.10;46.50
29917;DHT22;16786;49.466;11.068;2023-05-28T13:15:05;33.50;47.20
29917;DHT22;16786;49.466;11.068;2023-05-28T13:17:33;34.30;45.80
29917;DHT22;16786;49.466;11.068;2023-05-28T13:20:01;34.60;46.30
29917;DHT22;16786;49.466;11.068;2023-05-28T13:22:32;35.30;45.90
29917;DHT22;16786;49.466;11.068;2023-05-28T13:25:08;35.50;45.00
29917;DHT22;16786;49.466;11.068;2023-05-28T13:27:36;35.80;44.50
29917;DHT22;16786;49.466;11.068;2023-05-28T13:30:04;36.30;43.80
29917;DHT22;16786;49.466;11.068;2023-05-28T13:32:32;36.40;43.70
29917;DHT22;16786;49.466;11.068;2023-05-28T13:35:00;37.10;43.60
29917;DHT22;16786;49.466;11.068;2023-05-28T13:37:27;37.40;42.70
29917;DHT22;16786;49.466;11.068;2023-05-28T13:39:55;37.80;42.70
29917;DHT22;16786;49.466;11.068;2023-05-28T13:42:24;37.90;42.60
29917;DHT22;16786;49.466;11.068;2023-05-28T13:44:52;37.80;42.40
29917;DHT22;16786;49.466;11.068;2023-05-28T13:47:19;38.20;42.10
29917;DHT22;16786;49.466;11.068;2023-05-28T13:49:48;38.70;41.20
29917;DHT22;16786;49.466;11.068;2023-05-28T13:52:15;39.00;40.70
29917;DHT22;16786;49.466;11.068;2023-05-28T13:54:42;38.90;40.50
29917;DHT22;16786;49.466;11.068;2023-05-28T13:57:10;39.40;40.40
29917;DHT22;16786;49.466;11.068;2023-05-28T13:59:38;40.30;39.90
29917;DHT22;16786;49.466;11.068;2023-05-28T14:02:06;41.60;38.80
29917;DHT22;16786;49.466;11.068;2023-05-28T14:04:34;42.20;38.10
29917;DHT22;16786;49.466;11.068;2023-05-28T14:07:01;43.10;36.90
29917;DHT22;16786;49.466;11.068;2023-05-28T14:09:28;43.20;36.30
29917;DHT22;16786;49.466;11.068;2023-05-28T14:11:56;43.00;35.60
29917;DHT22;16786;49.466;11.068;2023-05-28T14:14:27;43.00;35.70
29917;DHT22;16786;49.466;11.068;2023-05-28T14:16:54;43.30;34.70
29917;DHT22;16786;49.466;11.068;2023-05-28T14:19:21;43.60;34.70
29917;DHT22;16786;49.466;11.068;2023-05-28T14:21:49;43.50;34.80
29917;DHT22;16786;49.466;11.068;2023-05-28T14:24:16;44.00;34.30
29917;DHT22;16786;49.466;11.068;2023-05-28T14:26:43;44.40;33.80
29917;DHT22;16786;49.466;11.068;2023-05-28T14:29:11;44.70;33.70
29917;DHT22;16786;49.466;11.068;2023-05-28T14:31:39;45.20;33.20
29917;DHT22;16786;49.466;11.068;2023-05-28T14:34:07;44.40;32.70
29917;DHT22;16786;49.466;11.068;2023-05-28T14:36:34;44.90;32.80
29917;DHT22;16786;49.466;11.068;2023-05-28T14:39:03;44.60;33.10
29917;DHT22;16786;49.466;11.068;2023-05-28T14:41:30;44.90;32.80
29917;DHT22;16786;49.466;11.068;2023-05-28T14:43:59;45.30;32.60
29917;DHT22;16786;49.466;11.068;2023-05-28T14:46:26;45.40;31.10
29917;DHT22;16786;49.466;11.068;2023-05-28T14:48:53;46.20;31.50
29917;DHT22;16786;49.466;11.068;2023-05-28T14:51:21;46.20;31.90
29917;DHT22;16786;49.466;11.068;2023-05-28T14:53:48;46.20;32.00
29917;DHT22;16786;49.466;11.068;2023-05-28T14:56:15;46.20;32.00
29917;DHT22;16786;49.466;11.068;2023-05-28T14:58:43;45.20;32.40
29917;DHT22;16786;49.466;11.068;2023-05-28T15:01:10;45.20;32.60
29917;DHT22;16786;49.466;11.068;2023-05-28T15:03:37;45.10;32.70
29917;DHT22;16786;49.466;11.068;2023-05-28T15:06:05;45.80;32.20
29917;DHT22;16786;49.466;11.068;2023-05-28T15:08:32;46.20;32.40
29917;DHT22;16786;49.466;11.068;2023-05-28T15:11:01;46.00;32.30
29917;DHT22;16786;49.466;11.068;2023-05-28T15:13:29;46.60;31.50
29917;DHT22;16786;49.466;11.068;2023-05-28T15:15:57;47.40;31.10
29917;DHT22;16786;49.466;11.068;2023-05-28T15:18:24;46.90;31.10
29917;DHT22;16786;49.466;11.068;2023-05-28T15:20:52;46.70;30.90
29917;DHT22;16786;49.466;11.068;2023-05-28T15:23:20;47.00;30.90
29917;DHT22;16786;49.466;11.068;2023-05-28T15:25:47;46.60;31.20
29917;DHT22;16786;49.466;11.068;2023-05-28T15:28:15;46.90;31.30
29917;DHT22;16786;49.466;11.068;2023-05-28T15:30:42;46.40;31.50
29917;DHT22;16786;49.466;11.068;2023-05-28T15:33:10;46.80;31.20
29917;DHT22;16786;49.466;11.068;2023-05-28T15:35:38;46.30;31.60
29917;DHT22;16786;49.466;11.068;2023-05-28T15:38:05;46.40;31.70
29917;DHT22;16786;49.466;11.068;2023-05-28T15:40:33;46.10;31.40
29917;DHT22;16786;49.466;11.068;2023-05-28T15:43:02;44.00;32.30
29917;DHT22;16786;49.466;11.068;2023-05-28T15:45:33;44.30;33.10
29917;DHT22;16786;49.466;11.068;2023-05-28T15:48:00;45.20;32.30
29917;DHT22;16786;49.466;11.068;2023-05-28T15:50:28;45.20;32.30
29917;DHT22;16786;49.466;11.068;2023-05-28T15:52:55;45.70;31.80